Orr, North Dakota
Current Conditions -  °F | °C
As of 9:12 AM on Friday 19 Dec 2014 (Local Time) from KRDR Reporting Station
Freezing Drizzle Freezing Drizzle  
Wind Chill: 13°   Ceiling: 300
Heat Index: 23°   Visibility: 1.5mi
Dew Point: 23°   Wind: 9mph
Humidity: 100%   Direction: 170°S
Pressure: 30.06"   Gusts: NA
Location:  48.1078°N, 97.7089°W
Report Text: KRDR 191512Z AUTO 17008KT 1 1/2SM -FZDZ BR OVC003 M05/M05 A3006 RMK AO2 VIS 1 1/2V2 DZB1507
Loading
Personal Weather Stations






























Interactive Weather Map New forecast layout! Learn more

10-Day Weather Forecast

Advertisements
Track Severe Weather on mobile